createdAt,value
2022-12-08T00:02:08.949Z,15.87
2022-12-08T00:04:55.313Z,13.67
2022-12-08T00:07:40.065Z,14.90
2022-12-08T00:10:19.160Z,13.57
2022-12-08T00:12:53.442Z,15.33
2022-12-08T00:15:19.754Z,15.17
2022-12-08T00:17:46.017Z,15.60
2022-12-08T00:20:12.369Z,15.37
2022-12-08T00:22:38.705Z,14.97
2022-12-08T00:25:05.881Z,15.67
2022-12-08T00:27:32.310Z,14.80
2022-12-08T00:29:58.612Z,15.87
2022-12-08T00:32:24.925Z,18.07
2022-12-08T00:34:51.221Z,14.10
2022-12-08T00:37:17.502Z,17.03
2022-12-08T00:39:43.796Z,15.60
2022-12-08T00:42:13.140Z,15.60
2022-12-08T00:44:44.726Z,16.07
2022-12-08T00:47:12.680Z,15.80
2022-12-08T00:49:39.045Z,14.37
2022-12-08T00:52:05.730Z,14.67
2022-12-08T00:54:32.225Z,16.60
2022-12-08T00:56:58.549Z,16.07
2022-12-08T00:59:24.955Z,13.23
2022-12-08T01:01:51.268Z,13.90
2022-12-08T01:04:19.539Z,15.90
2022-12-08T01:06:46.401Z,15.00
2022-12-08T01:09:14.741Z,15.10
2022-12-08T01:11:41.553Z,13.43
2022-12-08T01:14:07.985Z,14.53
2022-12-08T01:16:36.000Z,14.00
2022-12-08T01:19:02.929Z,14.63
2022-12-08T01:21:29.645Z,15.10
2022-12-08T01:23:57.883Z,15.03
2022-12-08T01:26:24.210Z,14.80
2022-12-08T01:28:50.642Z,15.10
2022-12-08T01:31:19.555Z,19.23
2022-12-08T01:33:46.683Z,14.20
2022-12-08T01:36:19.260Z,15.10
2022-12-08T01:38:45.649Z,17.63
2022-12-08T01:41:22.014Z,14.10
2022-12-08T01:44:08.227Z,15.47
2022-12-08T01:46:37.344Z,18.10
2022-12-08T01:49:10.806Z,18.77
2022-12-08T01:51:44.571Z,17.40
2022-12-08T01:54:12.495Z,17.37
2022-12-08T01:57:04.877Z,14.67
2022-12-08T01:59:36.164Z,18.23
2022-12-08T02:02:02.510Z,15.60
2022-12-08T02:04:28.830Z,21.47
2022-12-08T02:06:55.464Z,19.53
2022-12-08T02:09:22.116Z,18.50
2022-12-08T02:11:50.293Z,16.50
2022-12-08T02:14:16.731Z,18.20
2022-12-08T02:16:56.221Z,21.90
2022-12-08T02:19:40.822Z,20.50
2022-12-08T02:22:12.363Z,17.00
2022-12-08T02:24:46.175Z,18.93
2022-12-08T02:27:40.826Z,20.00
2022-12-08T02:30:18.997Z,19.17
2022-12-08T02:33:06.588Z,19.37
2022-12-08T02:35:43.155Z,20.83
2022-12-08T02:38:37.077Z,21.33
2022-12-08T02:41:23.346Z,19.23
2022-12-08T02:44:18.192Z,21.60
2022-12-08T02:46:52.526Z,20.53
2022-12-08T02:49:18.801Z,21.37
2022-12-08T02:51:45.140Z,23.80
2022-12-08T02:54:12.969Z,22.20
2022-12-08T02:57:11.756Z,21.73
2022-12-08T03:00:19.529Z,20.27
2022-12-08T03:03:00.695Z,23.43
2022-12-08T03:05:32.941Z,20.23
2022-12-08T03:08:19.993Z,18.93
2022-12-08T03:10:46.259Z,23.03
2022-12-08T03:13:32.288Z,22.13
2022-12-08T03:16:00.154Z,23.60
2022-12-08T03:18:31.796Z,19.97
2022-12-08T03:20:59.236Z,21.87
2022-12-08T03:23:26.516Z,22.47
2022-12-08T03:26:08.449Z,23.33
2022-12-08T03:28:34.938Z,18.70
2022-12-08T03:31:05.711Z,24.30
2022-12-08T03:33:37.385Z,20.00
2022-12-08T03:36:07.032Z,20.63
2022-12-08T03:38:45.593Z,24.20
2022-12-08T03:41:18.247Z,23.77
2022-12-08T03:44:04.958Z,18.10
2022-12-08T03:48:57.187Z,19.67
2022-12-08T03:51:24.294Z,19.17
2022-12-08T03:53:50.813Z,20.17
2022-12-08T03:56:26.244Z,18.70
2022-12-08T03:58:53.670Z,21.20
2022-12-08T04:01:20.425Z,24.00
2022-12-08T04:03:46.947Z,19.53
2022-12-08T04:06:13.371Z,19.93
2022-12-08T04:08:40.021Z,22.37
2022-12-08T04:11:06.596Z,21.47
2022-12-08T04:13:34.941Z,21.03
2022-12-08T04:16:01.468Z,19.93
2022-12-08T04:18:27.857Z,19.57
2022-12-08T04:20:56.328Z,17.60
2022-12-08T04:23:22.901Z,20.27
2022-12-08T04:25:50.740Z,18.10
2022-12-08T04:28:17.342Z,21.83
2022-12-08T04:30:43.942Z,18.00
2022-12-08T04:33:10.650Z,19.90
2022-12-08T04:35:36.933Z,23.00
2022-12-08T04:38:03.290Z,22.20
2022-12-08T04:40:29.566Z,21.67
2022-12-08T04:42:55.891Z,19.13
2022-12-08T04:45:22.256Z,19.90
2022-12-08T04:47:48.649Z,21.63
2022-12-08T04:50:14.999Z,18.93
2022-12-08T04:52:41.334Z,17.13
2022-12-08T04:55:08.008Z,22.37
2022-12-08T04:57:34.547Z,19.60
2022-12-08T05:00:00.965Z,20.53
2022-12-08T05:02:27.382Z,17.23
2022-12-08T05:04:53.697Z,18.73
2022-12-08T05:07:20.034Z,20.67
2022-12-08T05:09:46.326Z,20.50
2022-12-08T05:12:12.661Z,16.17
2022-12-08T05:14:38.962Z,20.40
2022-12-08T05:17:09.527Z,20.33
2022-12-08T05:19:36.340Z,19.10
2022-12-08T05:22:02.697Z,17.93
2022-12-08T05:24:28.991Z,18.27
2022-12-08T05:26:55.278Z,18.33
2022-12-08T05:29:21.601Z,18.17
2022-12-08T05:31:47.895Z,19.43
2022-12-08T05:34:14.377Z,17.07
2022-12-08T05:36:40.689Z,16.73
2022-12-08T05:39:07.009Z,17.03
2022-12-08T05:41:33.312Z,13.63
2022-12-08T05:43:59.598Z,15.33
2022-12-08T05:46:28.308Z,14.93
2022-12-08T05:48:54.670Z,16.37
2022-12-08T05:51:24.002Z,13.80
2022-12-08T05:53:51.860Z,15.47
2022-12-08T05:56:19.118Z,14.23
2022-12-08T05:58:45.953Z,12.00
2022-12-08T06:01:39.095Z,14.23
2022-12-08T06:04:05.513Z,12.83
2022-12-08T06:06:34.271Z,13.53
2022-12-08T06:09:02.925Z,15.47
2022-12-08T06:11:30.916Z,15.47
2022-12-08T06:13:57.698Z,13.33
2022-12-08T06:16:26.147Z,12.77
2022-12-08T06:18:53.077Z,12.80
2022-12-08T06:21:19.689Z,12.93
2022-12-08T06:23:53.689Z,13.63
2022-12-08T06:26:20.855Z,12.83
2022-12-08T06:28:47.776Z,12.83
2022-12-08T06:31:17.291Z,12.53
2022-12-08T06:33:43.960Z,12.57
2022-12-08T06:36:13.117Z,12.37
2022-12-08T06:38:43.302Z,13.07
2022-12-08T06:41:11.297Z,14.33
2022-12-08T06:43:37.765Z,12.60
2022-12-08T06:46:07.151Z,16.70
2022-12-08T06:48:33.459Z,14.67
2022-12-08T06:51:07.795Z,11.73
2022-12-08T06:53:34.083Z,15.10
2022-12-08T06:56:00.517Z,14.13
2022-12-08T06:58:26.957Z,12.53
2022-12-08T07:00:53.671Z,12.73
2022-12-08T07:03:20.505Z,12.37
2022-12-08T07:05:46.810Z,12.90
2022-12-08T07:08:13.172Z,10.47
2022-12-08T07:10:41.881Z,12.40
2022-12-08T07:13:08.170Z,13.40
2022-12-08T07:15:34.527Z,11.83
2022-12-08T07:18:00.978Z,10.73
2022-12-08T07:20:27.537Z,12.90
2022-12-08T07:22:54.319Z,10.63
2022-12-08T07:25:20.636Z,11.87
2022-12-08T07:27:47.498Z,12.90
2022-12-08T07:30:14.925Z,15.20
2022-12-08T07:32:41.230Z,11.40
2022-12-08T07:35:08.213Z,15.27
2022-12-08T07:37:35.699Z,13.23
2022-12-08T07:40:02.469Z,11.77
2022-12-08T07:42:29.118Z,12.13
2022-12-08T07:44:55.538Z,11.53
2022-12-08T07:47:21.829Z,11.10
2022-12-08T07:49:48.246Z,13.13
2022-12-08T07:52:14.554Z,10.40
2022-12-08T07:54:40.896Z,12.37
2022-12-08T07:57:08.937Z,11.73
2022-12-08T07:59:35.603Z,12.40
2022-12-08T08:02:23.046Z,12.13
2022-12-08T08:04:51.541Z,11.50
2022-12-08T08:07:17.903Z,11.83
2022-12-08T08:09:45.552Z,9.70
2022-12-08T08:12:30.360Z,13.40
2022-12-08T08:14:58.261Z,12.67
2022-12-08T08:17:24.742Z,11.50
2022-12-08T08:19:52.270Z,13.23
2022-12-08T08:22:18.761Z,11.27
2022-12-08T08:24:45.451Z,10.63
2022-12-08T08:27:12.516Z,11.07
2022-12-08T08:29:38.837Z,8.47
2022-12-08T08:32:05.729Z,11.30
2022-12-08T08:34:32.017Z,12.03
2022-12-08T08:36:58.377Z,10.80
2022-12-08T08:39:24.839Z,11.70
2022-12-08T08:41:51.217Z,11.00
2022-12-08T08:44:17.526Z,11.20
2022-12-08T08:46:44.455Z,9.27
2022-12-08T08:49:10.840Z,11.73
2022-12-08T08:51:37.231Z,9.10
2022-12-08T08:54:03.897Z,9.60
2022-12-08T08:56:30.522Z,8.63
2022-12-08T08:58:56.969Z,9.33
2022-12-08T09:01:27.345Z,9.20
2022-12-08T09:03:54.762Z,10.17
2022-12-08T09:06:21.377Z,10.67
2022-12-08T09:08:48.541Z,8.23
2022-12-08T09:11:14.977Z,7.03
2022-12-08T09:13:41.369Z,6.87
2022-12-08T09:16:09.133Z,8.40
2022-12-08T09:18:35.572Z,7.47
2022-12-08T09:21:14.888Z,7.67
2022-12-08T09:23:43.668Z,7.00
2022-12-08T09:26:09.987Z,8.10
2022-12-08T09:28:36.641Z,8.10
2022-12-08T09:31:03.029Z,8.60
2022-12-08T09:33:29.532Z,10.07
2022-12-08T09:35:56.127Z,8.27
2022-12-08T09:38:22.469Z,8.37
2022-12-08T09:40:51.630Z,7.27
2022-12-08T09:43:27.094Z,6.93
2022-12-08T09:45:55.079Z,6.73
2022-12-08T09:48:32.958Z,8.07
2022-12-08T09:50:59.307Z,6.27
2022-12-08T09:53:50.588Z,8.47
2022-12-08T09:56:22.616Z,7.03
2022-12-08T09:59:00.116Z,6.43
2022-12-08T10:01:29.575Z,6.83
2022-12-08T10:03:56.181Z,6.53
2022-12-08T10:06:47.789Z,5.60
2022-12-08T10:09:41.632Z,8.17
2022-12-08T10:12:10.874Z,6.57
2022-12-08T10:14:47.489Z,6.10
2022-12-08T10:17:17.776Z,4.27
2022-12-08T10:19:45.534Z,4.73
2022-12-08T10:22:26.830Z,5.53
2022-12-08T10:25:15.450Z,8.03
2022-12-08T10:27:41.763Z,6.40
2022-12-08T10:30:16.862Z,5.60
2022-12-08T10:32:47.687Z,4.50
2022-12-08T10:35:16.621Z,4.67
2022-12-08T10:37:59.381Z,4.60
2022-12-08T10:40:39.107Z,4.87
2022-12-08T10:43:15.551Z,4.53
2022-12-08T10:45:42.824Z,5.60
2022-12-08T10:48:11.919Z,4.60
2022-12-08T10:50:55.382Z,6.73
2022-12-08T10:53:27.358Z,7.83
2022-12-08T10:56:07.320Z,5.33
2022-12-08T10:58:35.556Z,4.53
2022-12-08T11:01:18.664Z,4.13
2022-12-08T11:03:45.056Z,5.83
2022-12-08T11:06:42.236Z,5.97
2022-12-08T11:09:17.632Z,5.17
2022-12-08T11:11:51.382Z,5.50
2022-12-08T11:14:32.214Z,7.53
2022-12-08T11:17:14.958Z,6.53
2022-12-08T11:19:44.571Z,4.93
2022-12-08T11:22:29.474Z,7.70
2022-12-08T11:25:12.036Z,5.70
2022-12-08T11:27:58.913Z,5.27
2022-12-08T11:30:30.297Z,4.00
2022-12-08T11:33:03.685Z,4.77
2022-12-08T11:35:35.191Z,4.07
2022-12-08T11:38:21.287Z,4.13
2022-12-08T11:40:52.167Z,4.40
2022-12-08T11:43:30.632Z,5.67
2022-12-08T11:46:01.712Z,7.53
2022-12-08T11:48:40.808Z,5.50
2022-12-08T11:51:15.183Z,3.77
2022-12-08T11:54:00.708Z,3.63
2022-12-08T11:56:34.616Z,3.50
2022-12-08T11:59:08.530Z,4.27
2022-12-08T12:01:40.913Z,6.57
2022-12-08T12:04:31.249Z,4.30
2022-12-08T12:07:26.530Z,3.40
2022-12-08T12:10:18.006Z,4.07
2022-12-08T12:13:05.381Z,4.07
2022-12-08T12:15:51.319Z,5.07
2022-12-08T12:18:29.880Z,4.20
2022-12-08T12:21:11.179Z,5.03
2022-12-08T12:23:45.781Z,5.00
2022-12-08T12:26:21.727Z,6.57
2022-12-08T12:29:09.681Z,5.33
2022-12-08T12:31:47.165Z,4.90
2022-12-08T12:34:32.779Z,5.17
2022-12-08T12:37:07.253Z,11.47
2022-12-08T12:39:46.833Z,7.60
2022-12-08T12:42:39.523Z,6.83
2022-12-08T12:45:17.931Z,6.50
2022-12-08T12:48:19.905Z,5.53
2022-12-08T12:50:48.501Z,5.00
2022-12-08T12:53:17.964Z,5.20
2022-12-08T12:55:58.735Z,5.90
2022-12-08T12:58:27.900Z,4.30
2022-12-08T13:01:20.088Z,4.77
2022-12-08T13:03:49.772Z,3.90
2022-12-08T13:06:24.319Z,2.90
2022-12-08T13:08:53.878Z,3.30
2022-12-08T13:11:21.529Z,3.73
2022-12-08T13:13:57.971Z,3.93
2022-12-08T13:16:27.170Z,4.13
2022-12-08T13:18:59.419Z,4.40
2022-12-08T13:21:33.980Z,3.67
2022-12-08T13:24:29.609Z,3.20
2022-12-08T13:27:04.790Z,3.97
2022-12-08T13:29:32.869Z,3.50
2022-12-08T13:32:09.601Z,4.07
2022-12-08T13:34:42.153Z,4.20
2022-12-08T13:37:11.499Z,4.53
2022-12-08T13:39:40.855Z,2.70
2022-12-08T13:42:35.740Z,5.07
2022-12-08T13:49:03.320Z,3.00
2022-12-08T13:53:34.168Z,3.43
2022-12-08T13:57:27.146Z,4.70
2022-12-08T13:59:53.471Z,2.93
2022-12-08T14:02:43.796Z,3.17
2022-12-08T14:05:18.993Z,3.10
2022-12-08T14:07:48.650Z,2.27
2022-12-08T14:10:19.934Z,3.53
2022-12-08T14:12:52.138Z,4.50
2022-12-08T14:15:19.674Z,4.63
2022-12-08T14:17:57.094Z,3.93
2022-12-08T14:20:51.735Z,3.10
2022-12-08T14:23:18.565Z,3.70
2022-12-08T14:25:47.995Z,4.20
2022-12-08T14:28:14.403Z,6.37
2022-12-08T14:30:40.817Z,4.97
2022-12-08T14:33:14.371Z,3.20
2022-12-08T14:35:40.795Z,3.43
2022-12-08T14:38:16.235Z,3.43
2022-12-08T14:40:45.090Z,4.47
2022-12-08T14:43:14.282Z,4.23
2022-12-08T14:45:40.547Z,2.80
2022-12-08T14:48:27.173Z,2.00
2022-12-08T14:51:11.856Z,4.10
2022-12-08T14:53:46.238Z,4.53
2022-12-08T14:56:15.552Z,3.70
2022-12-08T14:58:42.002Z,2.60
2022-12-08T15:01:13.350Z,2.93
2022-12-08T15:03:40.237Z,4.03
2022-12-08T15:06:08.235Z,3.70
2022-12-08T15:08:49.942Z,4.27
2022-12-08T15:11:22.032Z,3.90
2022-12-08T15:13:50.541Z,3.83
2022-12-08T15:16:46.073Z,7.07
2022-12-08T15:19:39.021Z,4.97
2022-12-08T15:22:21.161Z,6.13
2022-12-08T15:24:47.525Z,5.17
2022-12-08T15:27:18.916Z,4.93
2022-12-08T15:29:47.224Z,5.73
2022-12-08T15:32:18.593Z,6.03
2022-12-08T15:34:45.129Z,7.17
2022-12-08T15:37:26.379Z,4.17
2022-12-08T15:39:53.163Z,3.87
2022-12-08T15:42:19.438Z,5.03
2022-12-08T15:44:45.808Z,8.40
2022-12-08T15:47:23.525Z,5.07
2022-12-08T15:49:52.434Z,5.13
2022-12-08T15:52:23.223Z,4.93
2022-12-08T15:54:50.154Z,7.57
2022-12-08T15:58:04.112Z,4.77
2022-12-08T16:04:13.895Z,6.00
2022-12-08T16:09:12.213Z,4.93
2022-12-08T16:12:08.531Z,5.23
2022-12-08T16:17:23.294Z,6.40
2022-12-08T16:19:49.625Z,7.97
2022-12-08T16:25:22.297Z,6.27
2022-12-08T16:28:03.172Z,7.70
2022-12-08T16:30:35.108Z,7.13
2022-12-08T16:33:01.709Z,7.67
2022-12-08T16:35:28.228Z,6.07
2022-12-08T16:37:54.588Z,5.57
2022-12-08T16:40:21.040Z,6.77
2022-12-08T16:42:49.666Z,6.30
2022-12-08T16:45:21.505Z,6.87
2022-12-08T16:47:59.146Z,6.97
2022-12-08T16:50:28.996Z,6.03
2022-12-08T16:53:03.817Z,6.17
2022-12-08T16:55:30.648Z,7.77
2022-12-08T16:57:57.045Z,7.17
2022-12-08T17:00:26.097Z,7.87
2022-12-08T17:02:53.650Z,6.93
2022-12-08T17:05:22.138Z,7.90
2022-12-08T17:07:50.547Z,7.63
2022-12-08T17:10:20.782Z,6.67
2022-12-08T17:12:47.219Z,7.20
2022-12-08T17:15:16.697Z,9.27
2022-12-08T17:17:43.142Z,7.53
2022-12-08T17:20:13.473Z,7.33
2022-12-08T17:22:39.768Z,10.37
2022-12-08T17:25:06.760Z,8.87
2022-12-08T17:27:33.408Z,13.17
2022-12-08T17:29:59.842Z,7.20
2022-12-08T17:32:26.853Z,10.17
2022-12-08T17:34:53.480Z,7.07
2022-12-08T17:37:20.027Z,9.80
2022-12-08T17:39:46.399Z,8.37
2022-12-08T17:42:12.699Z,9.13
2022-12-08T17:44:39.049Z,7.87
2022-12-08T17:47:06.748Z,10.23
2022-12-08T17:49:33.935Z,9.80
2022-12-08T17:52:03.241Z,10.77
2022-12-08T17:54:30.341Z,8.63
2022-12-08T17:56:59.746Z,11.00
2022-12-08T17:59:28.214Z,10.77
2022-12-08T18:01:56.426Z,9.53
2022-12-08T18:04:24.425Z,9.93
2022-12-08T18:06:50.759Z,9.30
2022-12-08T18:09:17.714Z,11.20
2022-12-08T18:11:45.996Z,11.13
2022-12-08T18:14:14.095Z,11.53
2022-12-08T18:16:43.073Z,9.93
2022-12-08T18:19:10.541Z,9.00
2022-12-08T18:21:37.619Z,9.90
2022-12-08T18:24:04.766Z,8.77
2022-12-08T18:26:31.430Z,8.83
2022-12-08T18:28:57.951Z,10.27
2022-12-08T18:31:24.861Z,8.60
2022-12-08T18:33:51.933Z,7.97
2022-12-08T18:36:22.484Z,10.70
2022-12-08T18:38:49.458Z,7.07
2022-12-08T18:41:25.941Z,10.13
2022-12-08T18:43:56.912Z,7.03
2022-12-08T18:46:24.470Z,7.17
2022-12-08T18:48:51.985Z,5.60
2022-12-08T18:51:20.960Z,6.30
2022-12-08T18:53:47.576Z,7.17
2022-12-08T18:56:21.254Z,6.13
2022-12-08T18:58:47.583Z,6.20
2022-12-08T19:01:14.744Z,8.17
2022-12-08T19:03:45.651Z,4.80
2022-12-08T19:06:24.837Z,5.30
2022-12-08T19:08:51.204Z,5.10
2022-12-08T19:11:19.607Z,5.23
2022-12-08T19:13:46.447Z,8.87
2022-12-08T19:16:13.492Z,4.83
2022-12-08T19:18:40.404Z,7.17
2022-12-08T19:21:07.672Z,4.97
2022-12-08T19:23:34.387Z,5.23
2022-12-08T19:26:01.770Z,6.13
2022-12-08T19:28:28.590Z,5.77
2022-12-08T19:30:54.894Z,6.60
2022-12-08T19:33:21.390Z,5.83
2022-12-08T19:35:52.422Z,6.53
2022-12-08T19:38:19.282Z,7.43
2022-12-08T19:41:04.041Z,6.77
2022-12-08T19:43:52.923Z,9.57
2022-12-08T19:46:19.612Z,6.80
2022-12-08T19:48:46.149Z,6.80
2022-12-08T19:51:12.501Z,7.53
2022-12-08T19:53:41.840Z,8.73
2022-12-08T19:56:12.350Z,6.73
2022-12-08T19:58:38.668Z,7.57
2022-12-08T20:01:05.127Z,9.00
2022-12-08T20:03:31.510Z,5.73
2022-12-08T20:05:57.929Z,8.00
2022-12-08T20:08:24.339Z,6.20
2022-12-08T20:10:51.066Z,7.90
2022-12-08T20:13:35.738Z,7.20
2022-12-08T20:16:02.080Z,6.53
2022-12-08T20:18:28.698Z,7.97
2022-12-08T20:20:55.108Z,7.23
2022-12-08T20:23:21.404Z,6.97
2022-12-08T20:25:48.171Z,7.13
2022-12-08T20:28:14.588Z,8.00
2022-12-08T20:30:42.152Z,8.10
2022-12-08T20:33:09.981Z,6.00
2022-12-08T20:35:36.306Z,6.90
2022-12-08T20:38:02.598Z,7.63
2022-12-08T20:40:28.982Z,10.23
2022-12-08T20:42:55.310Z,6.97
2022-12-08T20:45:21.651Z,7.33
2022-12-08T20:47:48.047Z,7.57
2022-12-08T20:50:14.481Z,8.73
2022-12-08T20:52:41.005Z,7.60
2022-12-08T20:55:07.980Z,7.27
2022-12-08T20:57:34.468Z,7.57
2022-12-08T21:00:00.816Z,9.93
2022-12-08T21:02:27.698Z,8.30
2022-12-08T21:04:54.499Z,8.67
2022-12-08T21:07:21.298Z,8.50
2022-12-08T21:09:47.908Z,8.03
2022-12-08T21:12:14.509Z,9.37
2022-12-08T21:14:40.976Z,8.83
2022-12-08T21:17:08.056Z,7.53
2022-12-08T21:19:34.735Z,7.87
2022-12-08T21:22:01.260Z,10.30
2022-12-08T21:24:33.519Z,10.17
2022-12-08T21:27:00.573Z,7.47
2022-12-08T21:29:27.105Z,7.53
2022-12-08T21:31:55.583Z,11.50
2022-12-08T21:34:22.162Z,10.13
2022-12-08T21:36:48.473Z,8.43
2022-12-08T21:39:14.936Z,9.30
2022-12-08T21:41:59.867Z,8.97
2022-12-08T21:44:26.183Z,10.67
2022-12-08T21:46:52.633Z,7.70
2022-12-08T21:49:19.224Z,10.00
2022-12-08T21:51:45.648Z,11.33
2022-12-08T21:54:18.271Z,9.70
2022-12-08T21:56:47.265Z,9.83
2022-12-08T21:59:13.824Z,10.57
2022-12-08T22:01:40.388Z,10.47
2022-12-08T22:04:06.972Z,10.80
2022-12-08T22:06:33.383Z,10.20
2022-12-08T22:08:59.849Z,11.20
2022-12-08T22:11:26.387Z,9.00
2022-12-08T22:13:52.753Z,10.07
2022-12-08T22:16:19.387Z,7.73
2022-12-08T22:18:46.073Z,7.67
2022-12-08T22:21:15.507Z,10.33
2022-12-08T22:23:42.240Z,10.47
2022-12-08T22:26:09.447Z,11.50
2022-12-08T22:28:41.108Z,12.07
2022-12-08T22:31:10.061Z,15.00
2022-12-08T22:33:37.056Z,13.37
2022-12-08T22:36:10.234Z,11.33
2022-12-08T22:38:37.396Z,14.07
2022-12-08T22:41:05.162Z,15.57
2022-12-08T22:43:31.524Z,13.77
2022-12-08T22:45:58.043Z,11.03
2022-12-08T22:48:25.100Z,12.50
2022-12-08T22:50:57.816Z,14.10
2022-12-08T22:53:24.265Z,13.30
2022-12-08T22:55:50.540Z,12.20
2022-12-08T22:58:17.096Z,11.33
2022-12-08T23:00:43.679Z,11.07
2022-12-08T23:03:10.039Z,13.27
2022-12-08T23:05:38.458Z,13.87
2022-12-08T23:08:07.701Z,10.70
2022-12-08T23:10:34.960Z,14.13
2022-12-08T23:13:03.909Z,11.60
2022-12-08T23:15:30.753Z,11.83
2022-12-08T23:17:57.491Z,13.27
2022-12-08T23:20:24.083Z,11.60
2022-12-08T23:22:50.628Z,12.30
2022-12-08T23:25:18.500Z,12.80
2022-12-08T23:27:45.582Z,12.10
2022-12-08T23:30:12.675Z,13.73
2022-12-08T23:32:39.257Z,13.17
2022-12-08T23:35:06.568Z,12.83
2022-12-08T23:37:33.044Z,12.27
2022-12-08T23:39:59.480Z,13.00
2022-12-08T23:42:25.815Z,12.80
2022-12-08T23:44:52.431Z,11.90
2022-12-08T23:47:18.834Z,16.83
2022-12-08T23:49:45.679Z,12.03
2022-12-08T23:52:13.788Z,12.63
2022-12-08T23:54:40.489Z,12.20
2022-12-08T23:57:07.338Z,14.90
2022-12-08T23:59:33.814Z,13.10
